sensor_id;sensor_type;location;lat;lon;timestamp;P1;durP1;ratioP1;P2;durP2;ratioP2
68310;SDS011;55157;51.036;17.058;2022-12-08T00:01:16;22.27;;;11.23;;
68310;SDS011;55157;51.036;17.058;2022-12-08T00:03:42;30.23;;;16.95;;
68310;SDS011;55157;51.036;17.058;2022-12-08T00:06:14;38.70;;;21.42;;
68310;SDS011;55157;51.036;17.058;2022-12-08T00:08:43;38.88;;;20.85;;
68310;SDS011;55157;51.036;17.058;2022-12-08T00:11:10;27.55;;;15.88;;
68310;SDS011;55157;51.036;17.058;2022-12-08T00:13:35;26.98;;;16.55;;
68310;SDS011;55157;51.036;17.058;2022-12-08T00:16:02;98.82;;;46.30;;
68310;SDS011;55157;51.036;17.058;2022-12-08T00:18:27;142.45;;;89.72;;
68310;SDS011;55157;51.036;17.058;2022-12-08T00:20:53;72.60;;;43.67;;
68310;SDS011;55157;51.036;17.058;2022-12-08T00:23:18;71.32;;;33.58;;
68310;SDS011;55157;51.036;17.058;2022-12-08T00:25:44;60.90;;;28.00;;
68310;SDS011;55157;51.036;17.058;2022-12-08T00:28:09;107.47;;;39.47;;
68310;SDS011;55157;51.036;17.058;2022-12-08T00:30:34;43.65;;;21.02;;
68310;SDS011;55157;51.036;17.058;2022-12-08T00:33:01;351.98;;;83.38;;
68310;SDS011;55157;51.036;17.058;2022-12-08T00:35:26;292.27;;;75.93;;
68310;SDS011;55157;51.036;17.058;2022-12-08T00:37:51;365.63;;;87.85;;
68310;SDS011;55157;51.036;17.058;2022-12-08T00:40:17;292.38;;;75.60;;
68310;SDS011;55157;51.036;17.058;2022-12-08T00:42:42;260.92;;;67.00;;
68310;SDS011;55157;51.036;17.058;2022-12-08T00:45:07;260.70;;;66.32;;
68310;SDS011;55157;51.036;17.058;2022-12-08T00:47:33;169.32;;;48.80;;
68310;SDS011;55157;51.036;17.058;2022-12-08T00:49:59;108.30;;;35.38;;
68310;SDS011;55157;51.036;17.058;2022-12-08T00:52:24;81.07;;;27.13;;
68310;SDS011;55157;51.036;17.058;2022-12-08T00:54:50;104.50;;;28.98;;
68310;SDS011;55157;51.036;17.058;2022-12-08T00:57:15;58.25;;;21.80;;
68310;SDS011;55157;51.036;17.058;2022-12-08T00:59:40;52.28;;;19.73;;
68310;SDS011;55157;51.036;17.058;2022-12-08T01:02:05;51.92;;;19.10;;
68310;SDS011;55157;51.036;17.058;2022-12-08T01:04:31;63.45;;;18.90;;
68310;SDS011;55157;51.036;17.058;2022-12-08T01:06:57;61.97;;;21.90;;
68310;SDS011;55157;51.036;17.058;2022-12-08T01:09:22;45.03;;;18.20;;
68310;SDS011;55157;51.036;17.058;2022-12-08T01:11:48;40.92;;;18.17;;
68310;SDS011;55157;51.036;17.058;2022-12-08T01:14:13;34.55;;;15.27;;
68310;SDS011;55157;51.036;17.058;2022-12-08T01:16:39;33.30;;;14.70;;
68310;SDS011;55157;51.036;17.058;2022-12-08T01:19:04;38.60;;;16.23;;
68310;SDS011;55157;51.036;17.058;2022-12-08T01:21:29;31.58;;;14.10;;
68310;SDS011;55157;51.036;17.058;2022-12-08T01:23:57;48.75;;;19.48;;
68310;SDS011;55157;51.036;17.058;2022-12-08T01:26:23;70.18;;;25.23;;
68310;SDS011;55157;51.036;17.058;2022-12-08T01:28:48;67.45;;;24.42;;
68310;SDS011;55157;51.036;17.058;2022-12-08T01:31:14;45.15;;;19.10;;
68310;SDS011;55157;51.036;17.058;2022-12-08T01:33:41;60.85;;;26.00;;
68310;SDS011;55157;51.036;17.058;2022-12-08T01:36:06;49.42;;;20.42;;
68310;SDS011;55157;51.036;17.058;2022-12-08T01:38:32;52.83;;;20.70;;
68310;SDS011;55157;51.036;17.058;2022-12-08T01:40:59;41.95;;;20.33;;
68310;SDS011;55157;51.036;17.058;2022-12-08T01:43:24;34.85;;;16.33;;
68310;SDS011;55157;51.036;17.058;2022-12-08T01:45:49;34.63;;;14.43;;
68310;SDS011;55157;51.036;17.058;2022-12-08T01:48:17;36.38;;;16.33;;
68310;SDS011;55157;51.036;17.058;2022-12-08T01:50:44;23.13;;;12.35;;
68310;SDS011;55157;51.036;17.058;2022-12-08T01:53:11;28.92;;;15.35;;
68310;SDS011;55157;51.036;17.058;2022-12-08T01:55:39;25.58;;;13.63;;
68310;SDS011;55157;51.036;17.058;2022-12-08T01:58:07;33.47;;;16.90;;
68310;SDS011;55157;51.036;17.058;2022-12-08T02:00:35;39.63;;;20.88;;
68310;SDS011;55157;51.036;17.058;2022-12-08T02:03:01;57.20;;;27.20;;
68310;SDS011;55157;51.036;17.058;2022-12-08T02:05:27;52.38;;;27.85;;
68310;SDS011;55157;51.036;17.058;2022-12-08T02:07:52;60.60;;;29.63;;
68310;SDS011;55157;51.036;17.058;2022-12-08T02:10:19;47.53;;;24.30;;
68310;SDS011;55157;51.036;17.058;2022-12-08T02:12:45;43.08;;;21.38;;
68310;SDS011;55157;51.036;17.058;2022-12-08T02:15:12;50.03;;;26.20;;
68310;SDS011;55157;51.036;17.058;2022-12-08T02:17:42;47.92;;;24.23;;
68310;SDS011;55157;51.036;17.058;2022-12-08T02:20:15;52.70;;;32.95;;
68310;SDS011;55157;51.036;17.058;2022-12-08T02:22:47;44.90;;;25.45;;
68310;SDS011;55157;51.036;17.058;2022-12-08T02:25:18;38.47;;;22.42;;
68310;SDS011;55157;51.036;17.058;2022-12-08T02:27:48;40.40;;;22.25;;
68310;SDS011;55157;51.036;17.058;2022-12-08T02:30:22;23.08;;;11.70;;
68310;SDS011;55157;51.036;17.058;2022-12-08T02:35:35;24.90;;;13.43;;
68310;SDS011;55157;51.036;17.058;2022-12-08T02:38:04;30.58;;;14.98;;
68310;SDS011;55157;51.036;17.058;2022-12-08T02:40:32;28.58;;;14.07;;
68310;SDS011;55157;51.036;17.058;2022-12-08T02:43:01;24.13;;;13.27;;
68310;SDS011;55157;51.036;17.058;2022-12-08T02:45:28;27.75;;;14.95;;
68310;SDS011;55157;51.036;17.058;2022-12-08T02:47:56;33.13;;;16.77;;
68310;SDS011;55157;51.036;17.058;2022-12-08T02:50:22;33.10;;;16.90;;
68310;SDS011;55157;51.036;17.058;2022-12-08T02:52:49;34.28;;;16.10;;
68310;SDS011;55157;51.036;17.058;2022-12-08T02:55:19;22.85;;;13.35;;
68310;SDS011;55157;51.036;17.058;2022-12-08T02:57:49;27.45;;;13.00;;
68310;SDS011;55157;51.036;17.058;2022-12-08T03:00:17;26.00;;;12.75;;
68310;SDS011;55157;51.036;17.058;2022-12-08T03:02:44;27.95;;;12.68;;
68310;SDS011;55157;51.036;17.058;2022-12-08T03:05:13;20.70;;;11.25;;
68310;SDS011;55157;51.036;17.058;2022-12-08T03:07:43;25.60;;;13.25;;
68310;SDS011;55157;51.036;17.058;2022-12-08T03:10:12;30.80;;;16.35;;
68310;SDS011;55157;51.036;17.058;2022-12-08T03:12:41;25.38;;;13.15;;
68310;SDS011;55157;51.036;17.058;2022-12-08T03:15:07;23.45;;;12.95;;
68310;SDS011;55157;51.036;17.058;2022-12-08T03:17:33;22.77;;;11.00;;
68310;SDS011;55157;51.036;17.058;2022-12-08T03:20:00;20.00;;;10.80;;
68310;SDS011;55157;51.036;17.058;2022-12-08T03:22:27;18.10;;;10.50;;
68310;SDS011;55157;51.036;17.058;2022-12-08T03:24:53;17.83;;;10.20;;
68310;SDS011;55157;51.036;17.058;2022-12-08T03:27:21;19.67;;;10.48;;
68310;SDS011;55157;51.036;17.058;2022-12-08T03:29:48;20.88;;;10.63;;
68310;SDS011;55157;51.036;17.058;2022-12-08T03:32:15;18.73;;;10.57;;
68310;SDS011;55157;51.036;17.058;2022-12-08T03:34:44;18.23;;;11.02;;
68310;SDS011;55157;51.036;17.058;2022-12-08T03:37:11;17.83;;;11.10;;
68310;SDS011;55157;51.036;17.058;2022-12-08T03:39:36;26.25;;;13.40;;
68310;SDS011;55157;51.036;17.058;2022-12-08T03:42:01;24.05;;;12.70;;
68310;SDS011;55157;51.036;17.058;2022-12-08T03:44:28;25.92;;;15.23;;
68310;SDS011;55157;51.036;17.058;2022-12-08T03:46:53;25.92;;;13.93;;
68310;SDS011;55157;51.036;17.058;2022-12-08T03:49:18;26.58;;;13.70;;
68310;SDS011;55157;51.036;17.058;2022-12-08T03:51:43;28.10;;;12.15;;
68310;SDS011;55157;51.036;17.058;2022-12-08T03:54:09;20.20;;;11.70;;
68310;SDS011;55157;51.036;17.058;2022-12-08T03:56:35;18.25;;;10.48;;
68310;SDS011;55157;51.036;17.058;2022-12-08T03:59:01;21.30;;;10.32;;
68310;SDS011;55157;51.036;17.058;2022-12-08T04:01:27;17.30;;;10.68;;
68310;SDS011;55157;51.036;17.058;2022-12-08T04:03:53;18.85;;;11.07;;
68310;SDS011;55157;51.036;17.058;2022-12-08T04:06:18;21.45;;;11.13;;
68310;SDS011;55157;51.036;17.058;2022-12-08T04:08:44;23.30;;;11.80;;
68310;SDS011;55157;51.036;17.058;2022-12-08T04:11:09;24.58;;;11.80;;
68310;SDS011;55157;51.036;17.058;2022-12-08T04:13:35;16.80;;;9.70;;
68310;SDS011;55157;51.036;17.058;2022-12-08T04:16:01;23.30;;;9.85;;
68310;SDS011;55157;51.036;17.058;2022-12-08T04:18:28;17.80;;;9.20;;
68310;SDS011;55157;51.036;17.058;2022-12-08T04:20:53;21.35;;;10.52;;
68310;SDS011;55157;51.036;17.058;2022-12-08T04:23:18;14.88;;;9.93;;
68310;SDS011;55157;51.036;17.058;2022-12-08T04:25:43;17.25;;;10.93;;
68310;SDS011;55157;51.036;17.058;2022-12-08T04:28:09;16.45;;;10.52;;
68310;SDS011;55157;51.036;17.058;2022-12-08T04:30:34;18.77;;;10.10;;
68310;SDS011;55157;51.036;17.058;2022-12-08T04:32:59;16.60;;;10.65;;
68310;SDS011;55157;51.036;17.058;2022-12-08T04:35:26;14.15;;;10.38;;
68310;SDS011;55157;51.036;17.058;2022-12-08T04:37:51;17.35;;;11.20;;
68310;SDS011;55157;51.036;17.058;2022-12-08T04:40:16;16.83;;;10.95;;
68310;SDS011;55157;51.036;17.058;2022-12-08T04:42:42;17.20;;;10.98;;
68310;SDS011;55157;51.036;17.058;2022-12-08T04:45:07;18.65;;;11.48;;
68310;SDS011;55157;51.036;17.058;2022-12-08T04:47:33;20.10;;;11.32;;
68310;SDS011;55157;51.036;17.058;2022-12-08T04:49:58;20.17;;;11.07;;
68310;SDS011;55157;51.036;17.058;2022-12-08T04:52:26;18.25;;;11.13;;
68310;SDS011;55157;51.036;17.058;2022-12-08T04:54:51;20.98;;;12.07;;
68310;SDS011;55157;51.036;17.058;2022-12-08T04:57:16;17.58;;;10.68;;
68310;SDS011;55157;51.036;17.058;2022-12-08T04:59:41;16.17;;;11.40;;
68310;SDS011;55157;51.036;17.058;2022-12-08T05:02:07;20.08;;;12.32;;
68310;SDS011;55157;51.036;17.058;2022-12-08T05:04:32;20.98;;;12.27;;
68310;SDS011;55157;51.036;17.058;2022-12-08T05:06:57;21.08;;;12.85;;
68310;SDS011;55157;51.036;17.058;2022-12-08T05:09:24;19.40;;;12.52;;
68310;SDS011;55157;51.036;17.058;2022-12-08T05:11:49;24.15;;;13.00;;
68310;SDS011;55157;51.036;17.058;2022-12-08T05:14:15;19.20;;;11.55;;
68310;SDS011;55157;51.036;17.058;2022-12-08T05:16:41;20.67;;;12.23;;
68310;SDS011;55157;51.036;17.058;2022-12-08T05:19:07;22.65;;;12.55;;
68310;SDS011;55157;51.036;17.058;2022-12-08T05:21:33;20.52;;;12.50;;
68310;SDS011;55157;51.036;17.058;2022-12-08T05:23:58;23.90;;;13.35;;
68310;SDS011;55157;51.036;17.058;2022-12-08T05:26:24;18.75;;;12.23;;
68310;SDS011;55157;51.036;17.058;2022-12-08T05:28:50;31.25;;;14.27;;
68310;SDS011;55157;51.036;17.058;2022-12-08T05:31:15;23.52;;;14.20;;
68310;SDS011;55157;51.036;17.058;2022-12-08T05:33:41;21.52;;;12.77;;
68310;SDS011;55157;51.036;17.058;2022-12-08T05:36:06;22.98;;;13.82;;
68310;SDS011;55157;51.036;17.058;2022-12-08T05:38:32;20.83;;;12.82;;
68310;SDS011;55157;51.036;17.058;2022-12-08T05:40:57;21.10;;;12.68;;
68310;SDS011;55157;51.036;17.058;2022-12-08T05:43:24;24.45;;;14.63;;
68310;SDS011;55157;51.036;17.058;2022-12-08T05:45:49;36.25;;;21.05;;
68310;SDS011;55157;51.036;17.058;2022-12-08T05:48:16;25.73;;;17.50;;
68310;SDS011;55157;51.036;17.058;2022-12-08T05:50:44;115.03;;;56.80;;
68310;SDS011;55157;51.036;17.058;2022-12-08T05:53:09;35.13;;;20.38;;
68310;SDS011;55157;51.036;17.058;2022-12-08T05:55:34;29.52;;;17.13;;
68310;SDS011;55157;51.036;17.058;2022-12-08T05:58:00;32.90;;;16.42;;
68310;SDS011;55157;51.036;17.058;2022-12-08T06:00:26;34.00;;;18.25;;
68310;SDS011;55157;51.036;17.058;2022-12-08T06:02:52;30.90;;;16.80;;
68310;SDS011;55157;51.036;17.058;2022-12-08T06:05:17;23.20;;;14.82;;
68310;SDS011;55157;51.036;17.058;2022-12-08T06:07:43;20.48;;;13.85;;
68310;SDS011;55157;51.036;17.058;2022-12-08T06:10:09;25.25;;;15.40;;
68310;SDS011;55157;51.036;17.058;2022-12-08T06:12:34;23.35;;;14.75;;
68310;SDS011;55157;51.036;17.058;2022-12-08T06:14:59;28.20;;;15.25;;
68310;SDS011;55157;51.036;17.058;2022-12-08T06:17:26;23.25;;;13.98;;
68310;SDS011;55157;51.036;17.058;2022-12-08T06:19:51;26.50;;;14.82;;
68310;SDS011;55157;51.036;17.058;2022-12-08T06:22:17;30.05;;;14.93;;
68310;SDS011;55157;51.036;17.058;2022-12-08T06:24:42;24.52;;;14.13;;
68310;SDS011;55157;51.036;17.058;2022-12-08T06:27:07;22.88;;;12.05;;
68310;SDS011;55157;51.036;17.058;2022-12-08T06:29:32;20.80;;;12.77;;
68310;SDS011;55157;51.036;17.058;2022-12-08T06:31:57;22.30;;;13.93;;
68310;SDS011;55157;51.036;17.058;2022-12-08T06:34:24;21.65;;;14.63;;
68310;SDS011;55157;51.036;17.058;2022-12-08T06:36:49;25.30;;;16.02;;
68310;SDS011;55157;51.036;17.058;2022-12-08T06:39:15;21.77;;;15.13;;
68310;SDS011;55157;51.036;17.058;2022-12-08T06:41:40;30.42;;;16.48;;
68310;SDS011;55157;51.036;17.058;2022-12-08T06:44:05;31.63;;;15.75;;
68310;SDS011;55157;51.036;17.058;2022-12-08T06:46:30;26.00;;;15.25;;
68310;SDS011;55157;51.036;17.058;2022-12-08T06:48:55;39.63;;;16.70;;
68310;SDS011;55157;51.036;17.058;2022-12-08T06:51:22;31.13;;;17.77;;
68310;SDS011;55157;51.036;17.058;2022-12-08T06:53:47;35.38;;;17.33;;
68310;SDS011;55157;51.036;17.058;2022-12-08T06:56:13;28.98;;;17.80;;
68310;SDS011;55157;51.036;17.058;2022-12-08T06:58:38;30.35;;;17.15;;
68310;SDS011;55157;51.036;17.058;2022-12-08T07:01:04;27.65;;;13.77;;
68310;SDS011;55157;51.036;17.058;2022-12-08T07:03:30;28.17;;;14.10;;
68310;SDS011;55157;51.036;17.058;2022-12-08T07:05:55;21.60;;;13.27;;
68310;SDS011;55157;51.036;17.058;2022-12-08T07:08:22;21.48;;;12.45;;
68310;SDS011;55157;51.036;17.058;2022-12-08T07:10:47;24.00;;;13.93;;
68310;SDS011;55157;51.036;17.058;2022-12-08T07:13:12;20.65;;;12.82;;
68310;SDS011;55157;51.036;17.058;2022-12-08T07:15:37;19.50;;;12.75;;
68310;SDS011;55157;51.036;17.058;2022-12-08T07:18:02;18.60;;;12.50;;
68310;SDS011;55157;51.036;17.058;2022-12-08T07:20:28;19.20;;;12.13;;
68310;SDS011;55157;51.036;17.058;2022-12-08T07:22:53;22.30;;;13.57;;
68310;SDS011;55157;51.036;17.058;2022-12-08T07:25:20;21.20;;;13.60;;
68310;SDS011;55157;51.036;17.058;2022-12-08T07:27:45;18.63;;;12.35;;
68310;SDS011;55157;51.036;17.058;2022-12-08T07:30:10;22.92;;;13.88;;
68310;SDS011;55157;51.036;17.058;2022-12-08T07:32:36;22.40;;;14.00;;
68310;SDS011;55157;51.036;17.058;2022-12-08T07:35:01;23.88;;;14.77;;
68310;SDS011;55157;51.036;17.058;2022-12-08T07:37:27;22.98;;;13.23;;
68310;SDS011;55157;51.036;17.058;2022-12-08T07:39:52;19.98;;;12.57;;
68310;SDS011;55157;51.036;17.058;2022-12-08T07:42:18;27.08;;;14.73;;
68310;SDS011;55157;51.036;17.058;2022-12-08T07:44:44;23.67;;;15.82;;
68310;SDS011;55157;51.036;17.058;2022-12-08T07:47:09;22.73;;;14.88;;
68310;SDS011;55157;51.036;17.058;2022-12-08T07:49:34;27.17;;;15.60;;
68310;SDS011;55157;51.036;17.058;2022-12-08T07:51:59;19.92;;;13.60;;
68310;SDS011;55157;51.036;17.058;2022-12-08T07:54:25;20.02;;;13.85;;
68310;SDS011;55157;51.036;17.058;2022-12-08T07:56:50;29.00;;;13.98;;
68310;SDS011;55157;51.036;17.058;2022-12-08T07:59:16;24.83;;;15.45;;
68310;SDS011;55157;51.036;17.058;2022-12-08T08:01:42;35.25;;;20.00;;
68310;SDS011;55157;51.036;17.058;2022-12-08T08:04:07;38.78;;;22.27;;
68310;SDS011;55157;51.036;17.058;2022-12-08T08:06:33;30.52;;;18.42;;
68310;SDS011;55157;51.036;17.058;2022-12-08T08:08:58;50.20;;;24.67;;
68310;SDS011;55157;51.036;17.058;2022-12-08T08:11:24;46.35;;;24.35;;
68310;SDS011;55157;51.036;17.058;2022-12-08T08:13:49;42.47;;;22.00;;
68310;SDS011;55157;51.036;17.058;2022-12-08T08:16:16;42.03;;;19.63;;
68310;SDS011;55157;51.036;17.058;2022-12-08T08:18:42;40.47;;;21.50;;
68310;SDS011;55157;51.036;17.058;2022-12-08T08:21:07;48.97;;;24.40;;
68310;SDS011;55157;51.036;17.058;2022-12-08T08:23:32;39.50;;;21.63;;
68310;SDS011;55157;51.036;17.058;2022-12-08T08:25:57;43.63;;;23.38;;
68310;SDS011;55157;51.036;17.058;2022-12-08T08:28:23;30.95;;;17.83;;
68310;SDS011;55157;51.036;17.058;2022-12-08T08:30:48;70.53;;;27.52;;
68310;SDS011;55157;51.036;17.058;2022-12-08T08:33:15;82.90;;;32.33;;
68310;SDS011;55157;51.036;17.058;2022-12-08T08:35:40;43.60;;;20.67;;
68310;SDS011;55157;51.036;17.058;2022-12-08T08:38:05;56.88;;;23.10;;
68310;SDS011;55157;51.036;17.058;2022-12-08T08:40:30;53.67;;;23.13;;
68310;SDS011;55157;51.036;17.058;2022-12-08T08:42:56;49.38;;;21.38;;
68310;SDS011;55157;51.036;17.058;2022-12-08T08:45:21;89.07;;;31.10;;
68310;SDS011;55157;51.036;17.058;2022-12-08T08:47:46;77.78;;;25.75;;
68310;SDS011;55157;51.036;17.058;2022-12-08T08:50:13;62.25;;;24.25;;
68310;SDS011;55157;51.036;17.058;2022-12-08T08:52:38;67.70;;;25.85;;
68310;SDS011;55157;51.036;17.058;2022-12-08T08:55:03;72.38;;;26.30;;
68310;SDS011;55157;51.036;17.058;2022-12-08T08:57:29;26.88;;;16.00;;
68310;SDS011;55157;51.036;17.058;2022-12-08T08:59:54;46.15;;;18.40;;
68310;SDS011;55157;51.036;17.058;2022-12-08T09:02:19;31.90;;;14.15;;
68310;SDS011;55157;51.036;17.058;2022-12-08T09:04:45;55.33;;;20.17;;
68310;SDS011;55157;51.036;17.058;2022-12-08T09:07:12;64.95;;;21.67;;
68310;SDS011;55157;51.036;17.058;2022-12-08T09:09:37;18.25;;;10.82;;
68310;SDS011;55157;51.036;17.058;2022-12-08T09:12:03;24.75;;;11.75;;
68310;SDS011;55157;51.036;17.058;2022-12-08T09:14:28;19.55;;;12.75;;
68310;SDS011;55157;51.036;17.058;2022-12-08T09:16:53;43.05;;;18.08;;
68310;SDS011;55157;51.036;17.058;2022-12-08T09:19:18;28.83;;;14.38;;
68310;SDS011;55157;51.036;17.058;2022-12-08T09:21:44;28.88;;;14.38;;
68310;SDS011;55157;51.036;17.058;2022-12-08T09:24:10;29.25;;;15.27;;
68310;SDS011;55157;51.036;17.058;2022-12-08T09:26:36;41.60;;;17.60;;
68310;SDS011;55157;51.036;17.058;2022-12-08T09:29:01;37.42;;;16.63;;
68310;SDS011;55157;51.036;17.058;2022-12-08T09:31:26;58.90;;;21.20;;
68310;SDS011;55157;51.036;17.058;2022-12-08T09:33:51;31.75;;;13.18;;
68310;SDS011;55157;51.036;17.058;2022-12-08T09:36:17;40.60;;;16.25;;
68310;SDS011;55157;51.036;17.058;2022-12-08T09:38:42;29.77;;;14.32;;
68310;SDS011;55157;51.036;17.058;2022-12-08T09:41:11;35.33;;;16.75;;
68310;SDS011;55157;51.036;17.058;2022-12-08T09:43:42;29.80;;;15.35;;
68310;SDS011;55157;51.036;17.058;2022-12-08T09:46:10;23.08;;;12.88;;
68310;SDS011;55157;51.036;17.058;2022-12-08T09:48:38;22.75;;;12.57;;
68310;SDS011;55157;51.036;17.058;2022-12-08T09:51:04;34.95;;;16.25;;
68310;SDS011;55157;51.036;17.058;2022-12-08T09:53:31;33.40;;;13.88;;
68310;SDS011;55157;51.036;17.058;2022-12-08T09:55:59;30.27;;;15.85;;
68310;SDS011;55157;51.036;17.058;2022-12-08T09:58:30;41.80;;;17.77;;
68310;SDS011;55157;51.036;17.058;2022-12-08T10:00:58;29.95;;;16.05;;
68310;SDS011;55157;51.036;17.058;2022-12-08T10:03:25;34.55;;;15.60;;
68310;SDS011;55157;51.036;17.058;2022-12-08T10:05:54;33.28;;;13.48;;
68310;SDS011;55157;51.036;17.058;2022-12-08T10:08:23;29.67;;;14.30;;
68310;SDS011;55157;51.036;17.058;2022-12-08T10:10:51;20.63;;;13.55;;
68310;SDS011;55157;51.036;17.058;2022-12-08T10:13:19;28.20;;;16.00;;
68310;SDS011;55157;51.036;17.058;2022-12-08T10:15:48;29.63;;;16.58;;
68310;SDS011;55157;51.036;17.058;2022-12-08T10:18:15;33.65;;;14.48;;
68310;SDS011;55157;51.036;17.058;2022-12-08T10:20:43;26.40;;;14.55;;
68310;SDS011;55157;51.036;17.058;2022-12-08T10:23:12;22.10;;;12.68;;
68310;SDS011;55157;51.036;17.058;2022-12-08T10:25:40;21.30;;;11.38;;
68310;SDS011;55157;51.036;17.058;2022-12-08T10:28:07;17.40;;;10.68;;
68310;SDS011;55157;51.036;17.058;2022-12-08T10:30:32;30.85;;;14.48;;
68310;SDS011;55157;51.036;17.058;2022-12-08T10:32:59;19.25;;;11.60;;
68310;SDS011;55157;51.036;17.058;2022-12-08T10:35:24;28.25;;;14.02;;
68310;SDS011;55157;51.036;17.058;2022-12-08T10:38:08;16.48;;;11.27;;
68310;SDS011;55157;51.036;17.058;2022-12-08T10:40:40;22.75;;;11.88;;
68310;SDS011;55157;51.036;17.058;2022-12-08T10:43:11;22.83;;;13.45;;
68310;SDS011;55157;51.036;17.058;2022-12-08T10:45:38;24.17;;;13.20;;
68310;SDS011;55157;51.036;17.058;2022-12-08T10:48:08;21.17;;;12.80;;
68310;SDS011;55157;51.036;17.058;2022-12-08T10:50:40;22.17;;;12.20;;
68310;SDS011;55157;51.036;17.058;2022-12-08T10:53:10;27.73;;;12.52;;
68310;SDS011;55157;51.036;17.058;2022-12-08T10:55:38;46.75;;;21.02;;
68310;SDS011;55157;51.036;17.058;2022-12-08T10:58:04;39.17;;;16.85;;
68310;SDS011;55157;51.036;17.058;2022-12-08T11:00:29;41.22;;;16.40;;
68310;SDS011;55157;51.036;17.058;2022-12-08T11:02:58;27.23;;;13.20;;
68310;SDS011;55157;51.036;17.058;2022-12-08T11:05:26;22.90;;;11.85;;
68310;SDS011;55157;51.036;17.058;2022-12-08T11:07:52;19.08;;;8.77;;
68310;SDS011;55157;51.036;17.058;2022-12-08T11:10:19;22.73;;;9.50;;
68310;SDS011;55157;51.036;17.058;2022-12-08T11:12:44;13.82;;;8.93;;
68310;SDS011;55157;51.036;17.058;2022-12-08T11:15:13;25.52;;;9.20;;
68310;SDS011;55157;51.036;17.058;2022-12-08T11:17:39;19.42;;;9.60;;
68310;SDS011;55157;51.036;17.058;2022-12-08T11:20:18;16.48;;;9.98;;
68310;SDS011;55157;51.036;17.058;2022-12-08T11:22:45;13.73;;;8.15;;
68310;SDS011;55157;51.036;17.058;2022-12-08T11:25:16;15.82;;;8.50;;
68310;SDS011;55157;51.036;17.058;2022-12-08T11:27:42;20.98;;;11.00;;
68310;SDS011;55157;51.036;17.058;2022-12-08T11:30:11;19.48;;;9.20;;
68310;SDS011;55157;51.036;17.058;2022-12-08T11:32:37;23.42;;;11.70;;
68310;SDS011;55157;51.036;17.058;2022-12-08T11:35:04;23.55;;;10.70;;
68310;SDS011;55157;51.036;17.058;2022-12-08T11:37:31;27.05;;;12.98;;
68310;SDS011;55157;51.036;17.058;2022-12-08T11:40:02;41.50;;;15.73;;
68310;SDS011;55157;51.036;17.058;2022-12-08T11:42:29;29.83;;;12.43;;
68310;SDS011;55157;51.036;17.058;2022-12-08T11:44:56;20.15;;;11.77;;
68310;SDS011;55157;51.036;17.058;2022-12-08T11:47:23;29.77;;;15.75;;
68310;SDS011;55157;51.036;17.058;2022-12-08T11:49:49;32.83;;;14.18;;
68310;SDS011;55157;51.036;17.058;2022-12-08T11:52:18;27.42;;;12.38;;
68310;SDS011;55157;51.036;17.058;2022-12-08T11:54:45;23.80;;;10.50;;
68310;SDS011;55157;51.036;17.058;2022-12-08T11:57:13;25.65;;;11.18;;
68310;SDS011;55157;51.036;17.058;2022-12-08T11:59:38;15.10;;;7.32;;
68310;SDS011;55157;51.036;17.058;2022-12-08T12:02:04;18.08;;;8.48;;
68310;SDS011;55157;51.036;17.058;2022-12-08T12:04:31;22.98;;;10.23;;
68310;SDS011;55157;51.036;17.058;2022-12-08T12:07:18;24.13;;;10.98;;
68310;SDS011;55157;51.036;17.058;2022-12-08T12:09:52;21.38;;;10.98;;
68310;SDS011;55157;51.036;17.058;2022-12-08T12:12:26;29.60;;;12.70;;
68310;SDS011;55157;51.036;17.058;2022-12-08T12:15:05;33.35;;;12.82;;
68310;SDS011;55157;51.036;17.058;2022-12-08T12:17:38;34.40;;;15.52;;
68310;SDS011;55157;51.036;17.058;2022-12-08T12:20:08;21.20;;;12.60;;
68310;SDS011;55157;51.036;17.058;2022-12-08T12:22:36;22.90;;;12.60;;
68310;SDS011;55157;51.036;17.058;2022-12-08T12:25:01;31.48;;;17.75;;
68310;SDS011;55157;51.036;17.058;2022-12-08T12:27:30;48.25;;;16.92;;
68310;SDS011;55157;51.036;17.058;2022-12-08T12:29:57;30.58;;;17.35;;
68310;SDS011;55157;51.036;17.058;2022-12-08T12:32:24;28.88;;;15.95;;
68310;SDS011;55157;51.036;17.058;2022-12-08T12:34:50;44.70;;;22.52;;
68310;SDS011;55157;51.036;17.058;2022-12-08T12:37:16;52.53;;;23.27;;
68310;SDS011;55157;51.036;17.058;2022-12-08T12:39:46;39.22;;;21.52;;
68310;SDS011;55157;51.036;17.058;2022-12-08T12:44:59;33.63;;;19.15;;
68310;SDS011;55157;51.036;17.058;2022-12-08T12:47:44;25.25;;;15.07;;
68310;SDS011;55157;51.036;17.058;2022-12-08T12:50:10;25.38;;;14.13;;
68310;SDS011;55157;51.036;17.058;2022-12-08T12:55:20;20.15;;;11.20;;
68310;SDS011;55157;51.036;17.058;2022-12-08T12:57:49;16.90;;;10.75;;
68310;SDS011;55157;51.036;17.058;2022-12-08T13:00:17;15.68;;;9.27;;
68310;SDS011;55157;51.036;17.058;2022-12-08T13:02:44;19.23;;;8.77;;
68310;SDS011;55157;51.036;17.058;2022-12-08T13:05:12;14.75;;;9.75;;
68310;SDS011;55157;51.036;17.058;2022-12-08T13:07:40;14.05;;;9.13;;
68310;SDS011;55157;51.036;17.058;2022-12-08T13:10:10;18.65;;;9.23;;
68310;SDS011;55157;51.036;17.058;2022-12-08T13:12:37;40.67;;;19.00;;
68310;SDS011;55157;51.036;17.058;2022-12-08T13:15:03;20.52;;;11.88;;
68310;SDS011;55157;51.036;17.058;2022-12-08T13:17:31;109.28;;;46.00;;
68310;SDS011;55157;51.036;17.058;2022-12-08T13:19:58;223.60;;;80.95;;
68310;SDS011;55157;51.036;17.058;2022-12-08T13:27:33;24.60;;;13.13;;
68310;SDS011;55157;51.036;17.058;2022-12-08T13:35:09;21.98;;;11.45;;
68310;SDS011;55157;51.036;17.058;2022-12-08T13:37:39;18.52;;;11.93;;
68310;SDS011;55157;51.036;17.058;2022-12-08T13:40:07;30.80;;;14.23;;
68310;SDS011;55157;51.036;17.058;2022-12-08T13:42:35;33.25;;;19.90;;
68310;SDS011;55157;51.036;17.058;2022-12-08T13:45:12;39.25;;;20.98;;
68310;SDS011;55157;51.036;17.058;2022-12-08T13:47:40;25.67;;;16.25;;
68310;SDS011;55157;51.036;17.058;2022-12-08T13:50:10;41.72;;;20.05;;
68310;SDS011;55157;51.036;17.058;2022-12-08T13:52:37;39.35;;;19.25;;
68310;SDS011;55157;51.036;17.058;2022-12-08T13:55:12;62.17;;;24.20;;
68310;SDS011;55157;51.036;17.058;2022-12-08T13:57:39;43.55;;;21.45;;
68310;SDS011;55157;51.036;17.058;2022-12-08T14:00:06;49.17;;;22.55;;
68310;SDS011;55157;51.036;17.058;2022-12-08T14:02:32;54.90;;;24.58;;
68310;SDS011;55157;51.036;17.058;2022-12-08T14:04:59;112.40;;;39.58;;
68310;SDS011;55157;51.036;17.058;2022-12-08T14:07:26;80.85;;;33.30;;
68310;SDS011;55157;51.036;17.058;2022-12-08T14:09:51;108.93;;;38.72;;
68310;SDS011;55157;51.036;17.058;2022-12-08T14:12:17;94.50;;;36.00;;
68310;SDS011;55157;51.036;17.058;2022-12-08T14:14:43;88.55;;;32.80;;
68310;SDS011;55157;51.036;17.058;2022-12-08T14:17:10;90.72;;;32.50;;
68310;SDS011;55157;51.036;17.058;2022-12-08T14:19:36;81.53;;;32.88;;
68310;SDS011;55157;51.036;17.058;2022-12-08T14:22:05;70.68;;;32.22;;
68310;SDS011;55157;51.036;17.058;2022-12-08T14:24:35;185.20;;;58.78;;